Time;durP1;ratioP1;P1;durP2;ratioP2;P2;SDS_P1;SDS_P2;PMS_P1;PMS_P2;Temp;Humidity;BMP_temperature;BMP_pressure;BME280_temperature;BME280_humidity;BME280_pressure;Samples;Min_cycle;Max_cycle;Signal;HPM_P1;HPM_P2
2023/12/13 00:02:15;;;;;;;2.03;1.70;;;13.00;70.20;14.70;99403.00;;;;5019678;28;20220;-75
2023/12/13 00:04:42;;;;;;;2.00;1.70;;;13.00;70.30;14.70;99400.00;;;;5027033;28;20207;-75
2023/12/13 00:07:09;;;;;;;2.67;2.17;;;13.00;70.30;14.70;99399.00;;;;5027145;28;20201;-75
2023/12/13 00:09:37;;;;;;;2.90;2.47;;;13.00;70.30;14.70;99403.00;;;;5024922;28;20215;-75
2023/12/13 00:12:04;;;;;;;2.60;1.80;;;13.00;70.30;14.70;99406.00;;;;5012508;28;20219;-75
2023/12/13 00:14:31;;;;;;;2.63;2.15;;;13.00;70.30;14.70;99391.00;;;;5007652;28;20201;-75
2023/12/13 00:16:58;;;;;;;2.28;1.92;;;13.00;70.40;14.70;99398.00;;;;5011111;28;20586;-75
2023/12/13 00:19:26;;;;;;;5.70;1.77;;;12.90;70.30;14.70;99395.00;;;;5023655;28;20200;-75
2023/12/13 00:21:53;;;;;;;2.53;1.95;;;12.90;70.30;14.70;99392.00;;;;5022360;28;20208;-75
2023/12/13 00:24:20;;;;;;;2.55;2.22;;;12.90;70.30;14.70;99392.00;;;;5012137;28;20436;-75
2023/12/13 00:26:49;;;;;;;3.03;2.30;;;12.90;70.40;14.70;99392.00;;;;5014782;28;20666;-75
2023/12/13 00:29:16;;;;;;;4.20;2.28;;;12.90;70.40;14.70;99387.00;;;;5016843;28;20632;-75
2023/12/13 00:31:43;;;;;;;3.42;2.15;;;12.90;70.40;14.70;99392.00;;;;5010979;28;20196;-75
2023/12/13 00:34:10;;;;;;;4.63;2.30;;;12.90;70.40;14.70;99386.00;;;;5011617;28;20197;-75
2023/12/13 00:36:38;;;;;;;5.63;2.33;;;12.90;70.40;14.70;99386.00;;;;5025755;28;20238;-76
2023/12/13 00:39:06;;;;;;;2.65;1.98;;;12.90;70.40;14.70;99391.00;;;;5021584;28;20685;-75
2023/12/13 00:41:33;;;;;;;2.63;2.10;;;12.90;70.50;14.70;99391.00;;;;5031616;28;20246;-75
2023/12/13 00:44:00;;;;;;;3.78;2.40;;;12.90;70.50;14.70;99391.00;;;;5031375;28;20227;-75
2023/12/13 00:46:27;;;;;;;5.93;2.40;;;12.90;70.60;14.70;99387.00;;;;5027418;28;20932;-75
2023/12/13 00:48:54;;;;;;;2.45;2.25;;;13.00;70.70;14.70;99388.00;;;;5010351;28;20569;-75
2023/12/13 00:51:23;;;;;;;3.72;2.10;;;13.00;70.70;14.70;99385.00;;;;5011676;28;20570;-75
2023/12/13 00:53:51;;;;;;;3.45;2.65;;;13.00;70.70;14.70;99390.00;;;;5024582;28;20295;-76
2023/12/13 00:56:19;;;;;;;2.80;2.40;;;13.00;70.70;14.70;99380.00;;;;5018662;28;20684;-75
2023/12/13 00:58:47;;;;;;;4.15;2.80;;;13.00;70.80;14.70;99388.00;;;;5024089;28;20555;-76
2023/12/13 01:01:16;;;;;;;2.72;2.20;;;13.00;70.70;14.80;99380.00;;;;5028240;28;20194;-76
2023/12/13 01:03:43;;;;;;;3.58;2.42;;;13.00;70.70;14.70;99382.00;;;;5013697;28;20631;-76
2023/12/13 01:06:10;;;;;;;4.00;2.55;;;13.00;70.60;14.70;99375.00;;;;5010475;28;20693;-76
2023/12/13 01:08:37;;;;;;;4.28;2.50;;;13.00;70.60;14.70;99380.00;;;;5013397;28;20231;-75
2023/12/13 01:11:09;;;;;;;2.53;2.13;;;13.10;70.60;14.70;99379.00;;;;5011136;28;20669;-75
2023/12/13 01:13:36;;;;;;;2.88;2.40;;;13.00;70.60;14.70;99379.00;;;;5010656;28;20612;-75
2023/12/13 01:16:04;;;;;;;4.45;2.30;;;13.00;70.60;14.80;99389.00;;;;5020891;28;20633;-75
2023/12/13 01:18:31;;;;;;;2.97;2.10;;;13.00;70.60;14.80;99382.00;;;;5021098;28;20240;-75
2023/12/13 01:20:58;;;;;;;5.75;3.17;;;13.00;70.60;14.80;99385.00;;;;5018736;28;20204;-75
2023/12/13 01:23:27;;;;;;;2.28;2.05;;;13.00;70.60;14.80;99383.00;;;;5017329;28;20201;-75
2023/12/13 01:25:53;;;;;;;3.15;2.17;;;13.00;70.60;14.80;99385.00;;;;5010563;28;20284;-76
2023/12/13 01:28:22;;;;;;;3.03;2.40;;;13.00;70.60;14.80;99385.00;;;;5017489;28;20577;-75
2023/12/13 01:30:49;;;;;;;3.67;2.28;;;13.00;70.60;14.80;99392.00;;;;5010688;28;20565;-75
2023/12/13 01:33:15;;;;;;;3.28;2.42;;;13.00;70.60;14.80;99388.00;;;;5011303;28;20204;-75
2023/12/13 01:35:43;;;;;;;3.88;2.50;;;13.10;70.70;14.80;99387.00;;;;5010091;28;20539;-75
2023/12/13 01:38:10;;;;;;;3.53;2.58;;;13.10;70.80;14.90;99395.00;;;;5021597;28;20587;-75
2023/12/13 01:40:37;;;;;;;3.10;2.40;;;13.10;70.70;14.90;99397.00;;;;5010169;28;20424;-75
2023/12/13 01:43:04;;;;;;;3.47;2.30;;;13.10;70.70;14.90;99398.00;;;;5012039;28;20683;-75
2023/12/13 01:45:32;;;;;;;3.30;2.28;;;13.10;70.70;14.90;99402.00;;;;5010623;28;20208;-75
2023/12/13 01:48:00;;;;;;;3.90;2.45;;;13.10;70.60;14.90;99406.00;;;;5009545;28;20255;-75
2023/12/13 01:50:27;;;;;;;4.63;2.45;;;13.10;70.50;14.90;99405.00;;;;5016363;28;20315;-75
2023/12/13 01:52:55;;;;;;;3.20;2.33;;;13.10;70.50;14.90;99403.00;;;;5010033;28;20526;-76
2023/12/13 01:55:23;;;;;;;4.28;2.70;;;13.10;70.50;14.90;99407.00;;;;5011361;28;20236;-75
2023/12/13 01:57:50;;;;;;;5.07;2.65;;;13.10;70.50;14.90;99411.00;;;;5010579;28;20221;-75
2023/12/13 02:00:18;;;;;;;3.78;2.72;;;13.10;70.40;14.90;99412.00;;;;5024524;28;20204;-75
2023/12/13 02:02:48;;;;;;;3.30;2.30;;;13.10;70.30;14.80;99407.00;;;;5012379;28;20211;-75
2023/12/13 02:05:17;;;;;;;7.45;2.10;;;13.10;70.30;14.80;99404.00;;;;5010524;28;20201;-75
2023/12/13 02:07:44;;;;;;;3.88;1.98;;;13.10;70.20;14.80;99408.00;;;;5028530;28;20530;-75
2023/12/13 02:10:11;;;;;;;3.03;1.70;;;13.10;70.20;14.80;99407.00;;;;5027276;28;20203;-75
2023/12/13 02:12:39;;;;;;;3.67;1.98;;;13.10;70.10;14.70;99404.00;;;;5009821;28;20215;-75
2023/12/13 02:15:07;;;;;;;3.47;2.00;;;13.00;70.00;14.70;99404.00;;;;5010662;28;20228;-75
2023/12/13 02:17:34;;;;;;;2.95;2.10;;;13.00;70.00;14.70;99399.00;;;;5020181;28;20228;-75
2023/12/13 02:20:03;;;;;;;3.63;2.05;;;13.00;70.10;14.70;99406.00;;;;5010058;28;20618;-76
2023/12/13 02:22:31;;;;;;;5.57;2.17;;;13.00;70.10;14.70;99407.00;;;;5013345;28;20204;-75
2023/12/13 02:25:03;;;;;;;4.57;2.05;;;13.00;70.20;14.70;99397.00;;;;5028693;28;20204;-75
2023/12/13 02:27:30;;;;;;;4.47;2.20;;;13.00;70.20;14.70;99396.00;;;;5016976;28;20205;-75
2023/12/13 02:29:57;;;;;;;2.30;1.55;;;13.00;70.20;14.70;99402.00;;;;5025105;28;20215;-75
2023/12/13 02:32:24;;;;;;;3.45;1.70;;;13.00;70.20;14.70;99398.00;;;;5009359;28;20522;-75
2023/12/13 02:34:51;;;;;;;2.90;1.77;;;13.00;70.30;14.70;99391.00;;;;5016869;28;20196;-76
2023/12/13 02:37:19;;;;;;;2.60;1.75;;;12.90;70.20;14.70;99392.00;;;;5015477;28;20227;-75
2023/12/13 02:39:47;;;;;;;3.20;1.55;;;13.00;70.30;14.70;99390.00;;;;5011483;28;20197;-75
2023/12/13 02:42:14;;;;;;;2.85;1.38;;;12.90;70.40;14.70;99391.00;;;;5012118;28;20570;-75
2023/12/13 02:44:42;;;;;;;3.17;1.60;;;12.90;70.30;14.70;99387.00;;;;5016524;28;20668;-75
2023/12/13 02:47:10;;;;;;;4.53;1.77;;;13.00;70.40;14.70;99388.00;;;;5019549;28;20297;-75
2023/12/13 02:49:37;;;;;;;3.45;1.80;;;13.00;70.40;14.70;99385.00;;;;5015700;28;20207;-75
2023/12/13 02:52:05;;;;;;;2.85;1.67;;;13.00;70.40;14.70;99390.00;;;;5018859;28;20204;-75
2023/12/13 02:54:31;;;;;;;2.10;1.60;;;13.00;70.40;14.70;99383.00;;;;5009222;28;20224;-76
2023/12/13 02:57:00;;;;;;;2.25;1.77;;;13.00;70.40;14.70;99379.00;;;;5010975;28;20209;-76
2023/12/13 02:59:27;;;;;;;4.20;1.63;;;13.00;70.50;14.70;99382.00;;;;5027340;28;20553;-75
2023/12/13 03:01:54;;;;;;;3.63;1.60;;;13.00;70.40;14.70;99381.00;;;;5016004;28;20383;-75
2023/12/13 03:04:20;;;;;;;2.92;1.80;;;13.00;70.40;14.70;99389.00;;;;5013300;28;20235;-75
2023/12/13 03:06:47;;;;;;;4.80;2.30;;;13.00;70.40;14.80;99383.00;;;;5011324;28;20228;-75
2023/12/13 03:09:15;;;;;;;2.67;1.88;;;13.00;70.40;14.70;99387.00;;;;5015593;28;20205;-75
2023/12/13 03:11:41;;;;;;;3.97;2.15;;;13.00;70.40;14.70;99384.00;;;;5014184;28;20251;-75
2023/12/13 03:14:10;;;;;;;4.28;2.05;;;13.00;70.30;14.70;99389.00;;;;5020666;28;20204;-75
2023/12/13 03:16:37;;;;;;;4.28;1.73;;;13.00;70.40;14.80;99393.00;;;;5008349;28;20671;-76
2023/12/13 03:19:03;;;;;;;5.43;2.28;;;13.00;70.40;14.80;99384.00;;;;5007486;28;20243;-76
2023/12/13 03:21:30;;;;;;;4.47;2.58;;;13.00;70.40;14.80;99375.00;;;;5016797;28;20209;-75
2023/12/13 03:23:57;;;;;;;3.20;2.30;;;13.00;70.50;14.80;99379.00;;;;5007862;28;20204;-76
2023/12/13 03:26:24;;;;;;;3.08;2.05;;;13.00;70.40;14.80;99379.00;;;;5016785;28;20678;-76
2023/12/13 03:28:51;;;;;;;4.00;2.55;;;13.00;70.50;14.80;99377.00;;;;5013052;28;20192;-75
2023/12/13 03:31:19;;;;;;;3.08;2.60;;;13.00;70.50;14.80;99376.00;;;;5012017;28;20287;-75
2023/12/13 03:33:46;;;;;;;4.60;2.58;;;13.00;70.40;14.80;99369.00;;;;5023215;28;20207;-76
2023/12/13 03:36:17;;;;;;;3.08;2.47;;;13.00;70.50;14.80;99370.00;;;;5015399;28;20200;-75
2023/12/13 03:38:45;;;;;;;3.22;2.53;;;13.00;70.50;14.80;99371.00;;;;5007546;28;20232;-76
2023/12/13 03:41:12;;;;;;;2.85;2.55;;;13.00;70.50;14.80;99363.00;;;;5027235;28;20200;-75
2023/12/13 03:43:40;;;;;;;3.50;2.67;;;13.00;70.40;14.80;99371.00;;;;5012121;28;20257;-75
2023/12/13 03:46:07;;;;;;;3.55;2.78;;;13.00;70.40;14.80;99370.00;;;;5007797;28;20620;-75
2023/12/13 03:48:35;;;;;;;3.38;2.78;;;13.00;70.50;14.80;99370.00;;;;5007695;28;20202;-75
2023/12/13 03:51:04;;;;;;;4.32;3.67;;;13.00;70.50;14.80;99376.00;;;;5007701;28;20252;-75
2023/12/13 03:53:31;;;;;;;4.72;2.95;;;13.00;70.50;14.80;99365.00;;;;5027376;28;20207;-75
2023/12/13 03:55:58;;;;;;;3.53;3.08;;;13.10;70.50;14.90;99371.00;;;;5025802;28;20246;-75
2023/12/13 03:58:25;;;;;;;3.83;2.92;;;13.10;70.50;14.90;99368.00;;;;5010444;28;20225;-76
2023/12/13 04:00:53;;;;;;;4.97;3.33;;;13.10;70.50;14.90;99365.00;;;;5024310;28;20197;-75
2023/12/13 04:03:19;;;;;;;4.10;3.35;;;13.10;70.50;14.90;99363.00;;;;5009016;28;20223;-76
2023/12/13 04:05:48;;;;;;;4.25;3.60;;;13.10;70.50;14.90;99366.00;;;;5008336;28;20196;-76
2023/12/13 04:08:15;;;;;;;8.23;3.63;;;13.10;70.50;14.90;99370.00;;;;5008999;28;20584;-75
2023/12/13 04:10:41;;;;;;;3.97;3.22;;;13.10;70.50;14.90;99365.00;;;;5008117;28;20213;-75
2023/12/13 04:13:09;;;;;;;3.55;3.13;;;13.10;70.50;14.90;99366.00;;;;5008352;28;20220;-76
2023/12/13 04:15:36;;;;;;;4.18;3.33;;;13.10;70.50;14.90;99372.00;;;;5008422;28;20668;-76
2023/12/13 04:18:03;;;;;;;4.35;3.30;;;13.10;70.50;14.90;99375.00;;;;5011083;28;20702;-75
2023/12/13 04:20:30;;;;;;;4.22;3.50;;;13.10;70.50;14.90;99372.00;;;;5008316;28;20193;-76
2023/12/13 04:22:59;;;;;;;6.35;4.00;;;13.10;70.50;14.90;99373.00;;;;5008625;28;20231;-75
2023/12/13 04:25:26;;;;;;;4.97;4.03;;;13.10;70.50;15.00;99366.00;;;;5008783;28;20209;-75
2023/12/13 04:27:52;;;;;;;6.57;3.83;;;13.10;70.50;15.00;99359.00;;;;5017585;28;20203;-76
2023/12/13 04:30:19;;;;;;;6.88;5.05;;;13.10;70.50;14.90;99360.00;;;;5007601;28;20675;-75
2023/12/13 04:32:46;;;;;;;5.20;3.85;;;13.10;70.50;14.90;99355.00;;;;5021958;28;20208;-76
2023/12/13 04:35:13;;;;;;;4.43;4.00;;;13.10;70.50;15.00;99352.00;;;;5028254;28;20211;-75
2023/12/13 04:37:40;;;;;;;4.80;3.80;;;13.10;70.50;14.90;99354.00;;;;5017373;28;20192;-76
2023/12/13 04:40:11;;;;;;;8.27;4.32;;;13.10;70.50;14.90;99356.00;;;;5008031;28;20197;-76
2023/12/13 04:42:38;;;;;;;5.28;3.63;;;13.10;70.50;15.00;99354.00;;;;5019642;28;20584;-75
2023/12/13 04:45:06;;;;;;;4.70;3.80;;;13.10;70.50;14.90;99354.00;;;;5024914;28;20193;-76
2023/12/13 04:47:33;;;;;;;3.88;3.28;;;13.10;70.50;15.00;99357.00;;;;5008569;28;20205;-76
2023/12/13 04:50:00;;;;;;;4.45;4.05;;;13.10;70.50;15.00;99357.00;;;;5010121;28;20192;-75
2023/12/13 04:52:27;;;;;;;5.45;4.30;;;13.20;70.60;15.00;99359.00;;;;5017119;28;20204;-75
2023/12/13 04:54:54;;;;;;;7.88;4.38;;;13.20;70.60;15.00;99357.00;;;;5026915;28;20620;-76
2023/12/13 04:57:22;;;;;;;7.50;3.92;;;13.10;70.50;15.00;99362.00;;;;5008449;28;20578;-76
2023/12/13 04:59:49;;;;;;;7.85;4.57;;;13.20;70.60;15.00;99366.00;;;;5008096;28;20225;-76
2023/12/13 05:02:16;;;;;;;5.28;4.15;;;13.20;70.60;15.00;99360.00;;;;5025679;28;20201;-76
2023/12/13 05:04:43;;;;;;;5.20;3.92;;;13.20;70.60;15.00;99362.00;;;;5031133;28;20196;-76
2023/12/13 05:07:10;;;;;;;5.93;3.65;;;13.20;70.50;15.00;99356.00;;;;5020887;28;20201;-76
2023/12/13 05:09:37;;;;;;;5.25;4.30;;;13.20;70.50;15.00;99360.00;;;;5016490;28;20204;-76
2023/12/13 05:12:05;;;;;;;11.15;4.28;;;13.20;70.50;15.00;99359.00;;;;5022363;28;20632;-75
2023/12/13 05:14:34;;;;;;;5.13;4.13;;;13.20;70.60;15.00;99356.00;;;;5012235;28;20564;-75
2023/12/13 05:17:00;;;;;;;8.10;4.20;;;13.20;70.60;15.00;99356.00;;;;5010787;28;20251;-76
2023/12/13 05:19:27;;;;;;;5.05;3.65;;;13.20;70.60;15.00;99362.00;;;;5012140;28;20232;-76
2023/12/13 05:21:54;;;;;;;5.30;3.88;;;13.20;70.60;15.00;99361.00;;;;5024850;28;20215;-76
2023/12/13 05:24:21;;;;;;;6.97;4.10;;;13.20;70.60;15.00;99360.00;;;;5025987;28;20208;-75
2023/12/13 05:26:48;;;;;;;5.28;4.30;;;13.20;70.60;15.00;99357.00;;;;5010327;28;20714;-76
2023/12/13 05:29:15;;;;;;;3.92;3.50;;;13.20;70.60;15.00;99365.00;;;;5011486;28;20185;-76
2023/12/13 05:31:43;;;;;;;6.07;3.63;;;13.20;70.60;15.00;99361.00;;;;5015371;28;20223;-75
2023/12/13 05:34:10;;;;;;;4.25;3.45;;;13.20;70.60;15.10;99362.00;;;;5029893;28;20666;-76
2023/12/13 05:36:37;;;;;;;6.47;3.78;;;13.20;70.60;15.00;99356.00;;;;5010208;28;20208;-76
2023/12/13 05:39:05;;;;;;;6.13;3.88;;;13.20;70.60;15.10;99358.00;;;;5030098;28;20231;-76
2023/12/13 05:41:32;;;;;;;4.75;3.50;;;13.20;70.60;15.00;99356.00;;;;5025472;28;20239;-75
2023/12/13 05:43:59;;;;;;;4.75;3.78;;;13.20;70.60;15.00;99356.00;;;;5024943;28;20197;-76
2023/12/13 05:46:26;;;;;;;4.95;3.55;;;13.20;70.60;15.00;99353.00;;;;5021933;28;20577;-76
2023/12/13 05:48:55;;;;;;;5.53;3.60;;;13.20;70.60;15.00;99355.00;;;;5012258;28;20621;-76
2023/12/13 05:51:22;;;;;;;5.72;3.42;;;13.20;70.60;15.00;99357.00;;;;5017928;28;20199;-76
2023/12/13 05:53:49;;;;;;;6.20;3.50;;;13.20;70.50;15.00;99348.00;;;;5019304;28;20224;-75
2023/12/13 05:56:16;;;;;;;8.32;4.03;;;13.20;70.50;15.00;99352.00;;;;5011058;28;20646;-76
2023/12/13 05:58:43;;;;;;;3.72;3.33;;;13.20;70.60;15.10;99354.00;;;;5018910;28;20235;-76
2023/12/13 06:01:09;;;;;;;5.28;3.25;;;13.20;70.60;15.10;99348.00;;;;5027032;28;20215;-76
2023/12/13 06:03:36;;;;;;;6.70;3.70;;;13.20;70.60;15.10;99363.00;;;;5010661;28;20197;-75
2023/12/13 06:06:07;;;;;;;6.90;3.83;;;13.20;70.60;15.00;99355.00;;;;5017667;28;20212;-75
2023/12/13 06:08:34;;;;;;;5.45;3.22;;;13.20;70.60;15.10;99352.00;;;;5027123;28;20350;-75
2023/12/13 06:11:01;;;;;;;3.65;3.30;;;13.20;70.60;15.10;99353.00;;;;5010380;28;20197;-76
2023/12/13 06:13:28;;;;;;;5.63;3.35;;;13.30;70.70;15.10;99357.00;;;;5018884;28;20200;-75
2023/12/13 06:15:56;;;;;;;4.85;4.03;;;13.20;70.60;15.10;99363.00;;;;5015811;28;20223;-75
2023/12/13 06:18:23;;;;;;;6.97;4.22;;;13.30;70.60;15.10;99359.00;;;;5008951;28;20698;-75
2023/12/13 06:20:51;;;;;;;8.27;3.95;;;13.30;70.60;15.10;99352.00;;;;5008543;28;20196;-76
2023/12/13 06:23:19;;;;;;;5.32;3.97;;;13.30;70.60;15.10;99353.00;;;;5022280;28;20247;-75
2023/12/13 06:25:46;;;;;;;6.63;3.78;;;13.20;70.60;15.10;99352.00;;;;5009379;28;20213;-75
2023/12/13 06:28:13;;;;;;;5.65;4.03;;;13.30;70.60;15.10;99359.00;;;;5011036;28;20205;-75
2023/12/13 06:30:40;;;;;;;8.35;4.28;;;13.20;70.60;15.10;99361.00;;;;5028098;28;20591;-76
2023/12/13 06:33:06;;;;;;;6.82;4.00;;;13.30;70.70;15.10;99360.00;;;;5015798;28;20205;-75
2023/12/13 06:35:33;;;;;;;6.00;3.88;;;13.30;70.70;15.10;99349.00;;;;5008593;28;21012;-75
2023/12/13 06:38:00;;;;;;;6.07;4.40;;;13.30;70.80;15.10;99359.00;;;;5024222;28;20240;-75
2023/12/13 06:40:28;;;;;;;8.60;4.05;;;13.30;70.70;15.10;99362.00;;;;5025507;28;20589;-75
2023/12/13 06:42:55;;;;;;;6.72;3.63;;;13.30;70.60;15.10;99364.00;;;;5023825;28;20207;-75
2023/12/13 06:45:22;;;;;;;5.20;3.75;;;13.30;70.60;15.10;99363.00;;;;5029467;28;20204;-75
2023/12/13 06:47:51;;;;;;;5.15;3.78;;;13.30;70.70;15.10;99372.00;;;;5019415;28;20208;-76
2023/12/13 06:50:19;;;;;;;6.07;3.83;;;13.30;70.70;15.10;99373.00;;;;5016000;28;20245;-75
2023/12/13 06:52:47;;;;;;;6.57;4.53;;;13.30;70.70;15.10;99373.00;;;;5013486;28;20197;-76
2023/12/13 06:55:14;;;;;;;6.15;4.25;;;13.30;70.70;15.10;99371.00;;;;5012917;28;20213;-76
2023/12/13 06:57:42;;;;;;;7.60;3.72;;;13.30;70.70;15.10;99370.00;;;;5008935;28;20194;-76
2023/12/13 07:00:11;;;;;;;10.15;4.40;;;13.30;70.70;15.10;99379.00;;;;5011916;28;20219;-76
2023/12/13 07:02:39;;;;;;;4.95;3.47;;;13.30;70.70;15.10;99373.00;;;;5027664;28;20558;-74
2023/12/13 07:05:08;;;;;;;5.53;4.20;;;13.30;70.70;15.10;99385.00;;;;5028952;28;20212;-74
2023/12/13 07:07:35;;;;;;;5.90;3.70;;;13.30;70.70;15.10;99381.00;;;;5020859;28;20199;-75
2023/12/13 07:10:02;;;;;;;10.13;3.80;;;13.40;70.80;15.20;99385.00;;;;5028026;28;20196;-74
2023/12/13 07:12:29;;;;;;;7.95;3.50;;;13.40;70.70;15.20;99388.00;;;;5028535;28;20690;-75
2023/12/13 07:14:58;;;;;;;7.45;4.30;;;13.40;70.70;15.20;99393.00;;;;5014718;28;20288;-74
2023/12/13 07:17:25;;;;;;;7.68;4.22;;;13.40;70.70;15.20;99382.00;;;;5023750;28;20255;-74
2023/12/13 07:19:52;;;;;;;7.45;4.70;;;13.40;70.70;15.20;99379.00;;;;5027427;28;20227;-74
2023/12/13 07:22:19;;;;;;;8.95;3.97;;;13.40;70.70;15.20;99383.00;;;;5024394;28;20193;-76
2023/12/13 07:24:46;;;;;;;6.65;3.80;;;13.40;70.70;15.20;99384.00;;;;5027630;28;20208;-74
2023/12/13 07:27:13;;;;;;;6.10;3.92;;;13.40;71.40;15.20;99392.00;;;;5014899;28;20197;-74
2023/12/13 07:29:41;;;;;;;6.65;4.43;;;13.40;70.70;15.20;99388.00;;;;5012364;28;20219;-74
2023/12/13 07:32:10;;;;;;;8.23;4.30;;;13.40;70.70;15.20;99394.00;;;;5014149;28;20197;-75
2023/12/13 07:34:37;;;;;;;6.50;4.03;;;13.40;70.70;15.20;99388.00;;;;5026033;28;20204;-75
2023/12/13 07:37:07;;;;;;;7.05;4.15;;;13.40;70.70;15.20;99394.00;;;;5020450;28;20200;-75
2023/12/13 07:39:36;;;;;;;5.65;4.00;;;13.40;70.60;15.20;99384.00;;;;5017843;28;20273;-74
2023/12/13 07:42:04;;;;;;;5.70;3.75;;;13.40;70.70;15.30;99402.00;;;;5008851;28;20197;-75
2023/12/13 07:44:32;;;;;;;6.63;4.35;;;13.40;70.70;15.30;99396.00;;;;5008749;28;20373;-74
2023/12/13 07:47:00;;;;;;;8.63;4.22;;;13.40;70.70;15.30;99393.00;;;;5021596;28;20585;-75
2023/12/13 07:49:29;;;;;;;8.35;4.00;;;13.40;70.70;15.30;99395.00;;;;5020632;28;20803;-75
2023/12/13 07:51:56;;;;;;;6.57;3.92;;;13.40;70.70;15.30;99396.00;;;;5024501;28;20200;-74
2023/12/13 07:54:23;;;;;;;8.88;3.72;;;13.40;70.70;15.30;99394.00;;;;5027952;28;20209;-75
2023/12/13 07:56:52;;;;;;;9.05;4.15;;;13.50;70.80;15.30;99393.00;;;;5014218;28;20198;-74
2023/12/13 07:59:19;;;;;;;8.02;4.32;;;13.50;70.80;15.30;99400.00;;;;5011682;28;20658;-75
2023/12/13 08:01:46;;;;;;;5.25;3.55;;;13.50;70.80;15.30;99409.00;;;;5012660;28;20605;-75
2023/12/13 08:04:13;;;;;;;6.28;3.50;;;13.50;70.80;15.30;99404.00;;;;5008440;28;20197;-75
2023/12/13 08:06:41;;;;;;;5.57;3.53;;;13.50;70.80;15.30;99412.00;;;;5010012;28;20296;-75
2023/12/13 08:09:10;;;;;;;7.05;3.75;;;13.50;70.80;15.40;99405.00;;;;5024055;28;20199;-74
2023/12/13 08:11:37;;;;;;;8.90;4.75;;;13.50;71.00;15.40;99401.00;;;;5015359;28;20201;-75
2023/12/13 08:14:04;;;;;;;6.35;3.95;;;13.50;70.80;15.40;99407.00;;;;5024646;28;20204;-75
2023/12/13 08:16:31;;;;;;;7.25;4.43;;;13.50;70.80;15.40;99409.00;;;;5022393;28;20207;-75
2023/12/13 08:18:58;;;;;;;7.28;4.32;;;13.50;70.80;15.40;99411.00;;;;5016266;28;20244;-74
2023/12/13 08:21:25;;;;;;;7.07;3.85;;;13.50;70.80;15.40;99406.00;;;;5015084;28;20680;-74
2023/12/13 08:23:54;;;;;;;7.97;4.70;;;13.60;70.80;15.40;99411.00;;;;5017887;28;20197;-75
2023/12/13 08:26:21;;;;;;;7.40;4.38;;;13.60;70.80;15.40;99417.00;;;;5008534;28;20201;-75
2023/12/13 08:28:48;;;;;;;7.95;4.03;;;13.60;70.80;15.40;99411.00;;;;5007354;28;20217;-75
2023/12/13 08:31:15;;;;;;;8.18;4.05;;;13.60;70.80;15.40;99414.00;;;;5011852;28;20830;-76
2023/12/13 08:33:42;;;;;;;7.15;4.00;;;13.60;70.80;15.40;99425.00;;;;5014298;28;20564;-75
2023/12/13 08:36:11;;;;;;;5.57;3.78;;;13.60;70.80;15.40;99423.00;;;;5010594;28;20635;-75
2023/12/13 08:38:40;;;;;;;6.13;3.63;;;13.60;70.80;15.40;99428.00;;;;5017003;28;20658;-75
2023/12/13 08:41:11;;;;;;;7.85;4.18;;;13.60;70.80;15.40;99423.00;;;;5023505;28;20689;-75
2023/12/13 08:43:39;;;;;;;8.43;3.67;;;13.60;70.70;15.50;99422.00;;;;5015602;28;20896;-75
2023/12/13 08:46:06;;;;;;;7.75;4.20;;;13.60;70.80;15.50;99424.00;;;;5020929;28;20254;-75
2023/12/13 08:48:34;;;;;;;6.28;3.80;;;13.60;70.80;15.50;99422.00;;;;5018217;28;20288;-75
2023/12/13 08:51:01;;;;;;;7.47;3.67;;;13.60;70.80;15.50;99429.00;;;;5028705;28;20583;-75
2023/12/13 08:53:28;;;;;;;5.43;3.67;;;13.70;70.80;15.50;99424.00;;;;5031782;28;20570;-76
2023/12/13 08:55:55;;;;;;;6.57;3.42;;;13.70;70.80;15.50;99433.00;;;;5022133;28;20623;-75
2023/12/13 08:58:23;;;;;;;5.35;3.63;;;13.70;70.80;15.50;99411.00;;;;5027341;28;20196;-75
2023/12/13 09:00:50;;;;;;;6.63;3.25;;;13.70;70.80;15.60;99434.00;;;;5028560;28;20231;-75
2023/12/13 09:03:19;;;;;;;10.65;3.45;;;13.70;70.80;15.60;99428.00;;;;5029705;28;20602;-76
2023/12/13 09:05:46;;;;;;;6.65;3.58;;;13.70;70.80;15.60;99429.00;;;;5017834;28;20209;-76
2023/12/13 09:08:13;;;;;;;9.13;4.15;;;13.70;70.80;15.60;99437.00;;;;5021570;28;20217;-76
2023/12/13 09:10:40;;;;;;;6.65;3.33;;;13.70;70.70;15.60;99440.00;;;;5011016;28;20266;-75
2023/12/13 09:13:07;;;;;;;6.60;3.85;;;13.70;70.80;15.60;99440.00;;;;5018751;28;20208;-76
2023/12/13 09:15:36;;;;;;;10.95;4.32;;;13.70;70.80;15.60;99432.00;;;;5010997;28;20578;-75
2023/12/13 09:18:02;;;;;;;7.43;3.95;;;13.70;70.80;15.60;99446.00;;;;5016913;28;20231;-75
2023/12/13 09:20:29;;;;;;;7.70;3.63;;;13.80;70.80;15.60;99450.00;;;;5028326;28;20713;-75
2023/12/13 09:22:56;;;;;;;8.60;4.20;;;13.80;70.80;15.60;99452.00;;;;5019583;28;20886;-76
2023/12/13 09:25:25;;;;;;;4.07;3.60;;;13.70;70.70;15.60;99458.00;;;;5010742;28;20224;-76
2023/12/13 09:27:52;;;;;;;7.65;4.43;;;13.80;70.80;15.60;99456.00;;;;5010301;28;20197;-75
2023/12/13 09:30:19;;;;;;;6.15;3.80;;;13.80;70.70;15.60;99458.00;;;;5010957;28;20221;-76
2023/12/13 09:32:48;;;;;;;5.97;3.65;;;13.80;70.70;15.60;99460.00;;;;5025142;28;20753;-76
2023/12/13 09:35:15;;;;;;;4.50;3.60;;;13.80;70.70;15.60;99463.00;;;;5021533;28;20675;-76
2023/12/13 09:37:42;;;;;;;6.50;4.10;;;13.80;70.60;15.60;99460.00;;;;5015165;28;20201;-75
2023/12/13 09:40:15;;;;;;;6.60;2.92;;;13.80;70.60;15.60;99464.00;;;;5013229;28;20232;-76
2023/12/13 09:42:45;;;;;;;7.55;3.60;;;13.80;70.70;15.60;99471.00;;;;5030540;28;20223;-75
2023/12/13 09:45:18;;;;;;;7.43;3.63;;;13.80;70.70;15.60;99468.00;;;;5028770;28;20211;-75
2023/12/13 09:47:47;;;;;;;4.75;4.22;;;13.80;70.70;15.60;99469.00;;;;5027311;28;20200;-75
2023/12/13 09:50:14;;;;;;;8.52;4.75;;;13.80;70.60;15.60;99473.00;;;;5026605;28;20203;-75
2023/12/13 09:52:44;;;;;;;5.38;4.38;;;13.80;70.60;15.60;99479.00;;;;5025843;28;20213;-76
2023/12/13 09:55:11;;;;;;;7.15;4.15;;;13.80;70.70;15.60;99479.00;;;;5010281;28;20224;-76
2023/12/13 09:57:39;;;;;;;5.22;4.07;;;13.80;70.80;15.70;99472.00;;;;5009908;28;20205;-76
2023/12/13 10:00:08;;;;;;;5.63;3.65;;;13.80;70.80;15.70;99480.00;;;;5017789;28;20318;-77
2023/12/13 10:02:35;;;;;;;6.40;4.45;;;13.80;70.90;15.70;99484.00;;;;5030292;28;20568;-76
2023/12/13 10:05:06;;;;;;;7.47;4.43;;;13.90;71.00;15.70;99495.00;;;;5010718;28;20878;-76
2023/12/13 10:07:33;;;;;;;7.45;4.72;;;13.90;71.10;15.80;99494.00;;;;5022689;28;20199;-77
2023/12/13 10:10:00;;;;;;;7.18;3.70;;;13.90;71.10;15.80;99495.00;;;;5011684;28;20200;-77
2023/12/13 10:12:27;;;;;;;5.13;3.97;;;13.90;71.20;15.80;99494.00;;;;5010610;28;20288;-76
2023/12/13 10:14:54;;;;;;;6.65;4.53;;;13.90;71.20;15.80;99502.00;;;;5013020;28;20209;-76
2023/12/13 10:17:22;;;;;;;7.05;4.10;;;14.00;71.20;15.90;99506.00;;;;5018266;28;20236;-76
2023/12/13 10:19:49;;;;;;;6.68;4.70;;;14.00;71.20;15.90;99502.00;;;;5010774;28;20220;-75
2023/12/13 10:22:19;;;;;;;7.13;3.95;;;14.00;71.20;15.90;99505.00;;;;5029048;28;20287;-75
2023/12/13 10:24:47;;;;;;;5.43;3.83;;;14.10;71.30;16.00;99512.00;;;;5026437;28;20199;-76
2023/12/13 10:27:15;;;;;;;15.18;5.28;;;14.10;71.20;16.00;99516.00;;;;5014562;28;20223;-76
2023/12/13 10:29:42;;;;;;;6.00;4.60;;;14.10;71.20;16.00;99508.00;;;;5017409;28;20215;-76
2023/12/13 10:32:09;;;;;;;7.20;4.65;;;14.20;71.20;16.00;99511.00;;;;5009663;28;20673;-75
2023/12/13 10:34:37;;;;;;;8.60;5.10;;;14.20;71.20;16.10;99515.00;;;;5008875;28;20590;-75
2023/12/13 10:37:07;;;;;;;6.40;4.88;;;14.20;71.10;16.10;99514.00;;;;5016602;28;20666;-75
2023/12/13 10:39:36;;;;;;;7.45;4.82;;;14.20;71.20;16.10;99519.00;;;;5027258;28;20205;-76
2023/12/13 10:42:04;;;;;;;7.75;5.13;;;14.20;71.20;16.20;99512.00;;;;5028481;28;20709;-76
2023/12/13 10:44:34;;;;;;;6.60;4.50;;;14.30;71.20;16.20;99509.00;;;;5028612;28;20192;-76
2023/12/13 10:47:05;;;;;;;8.13;5.40;;;14.30;71.20;16.20;99515.00;;;;5009558;28;20205;-75
2023/12/13 10:49:33;;;;;;;12.40;5.43;;;14.30;71.20;16.30;99510.00;;;;5012703;28;20209;-76
2023/12/13 10:52:02;;;;;;;6.22;4.53;;;14.40;71.80;16.20;99511.00;;;;5029218;28;20204;-76
2023/12/13 10:54:30;;;;;;;8.50;5.50;;;14.40;71.10;16.30;99519.00;;;;5028157;28;20222;-76
2023/12/13 10:57:00;;;;;;;6.07;4.97;;;14.40;71.10;16.30;99517.00;;;;5028011;28;20299;-75